Extreme weather reports worldwide

Rain

Station
 
Location
 
Name
 
Wind
Knots
Gust
Knots
Vis
SM
Temp/Dew
C
Baro
inHg
METAR
 
EHM PAEH Cape Newenham, US Cape Newenham LRRS Airport 31 37 10 14/13 29.86 PAEH 011314Z AUTO 18031G37KT 10SM -RA FEW005 BKN020 14/13 A2986 RMK AO2 PK WND 19038/1302 SLP112
SVX USSS Yekaterinburg, RU Koltsovo Airport 19 35 5.59 23/15 29.76 USSS 011330Z 32010G18MPS 9000 -TSRA SCT033CB 23/15 Q1008 R26L/290050 R26R/290035 TEMPO VRB22MPS -TSRAGR SQ RMK QFE736/0981
KSY LTCF Kars, TR Kars Airport 20 33 6.21 21/11 30.09 LTCF 011323Z 06020G33KT 020V090 9999 -TSRA FEW025CB BKN035 21/11 Q1019 RETS RMK RWY24 07013KT 040V110
TBU NFTF Nuku'alofa, TO Fua'amotu International Airport 26 31 6.21 20/17 29.68 NFTF 011300Z 28026G31KT 9999 -RA SCT016TCU BKN035 20/17 Q1005
LUR PALU Cape Lisburne, US Cape Lisburne LRRS Airport 18 30 7 5/5 29.74 PALU 011333Z AUTO 21018G30KT 090V250 7SM -SHRA OVC004 05/05 A2974 RMK AO2 WSHFT 1307 SLP071

Station
 
Location
 
Name
 
Wind
Knots
Gust
Knots
Vis
SM
Temp/Dew
C
Baro
inHg
METAR
 
EPH KEPH Ephrata, US Ephrata Municipal Airport 22 27 1.75 25/16 29.97 KEPH 011353Z AUTO 33022G27KT 1 3/4SM -RA FEW090 OVC100 25/16 A2997 RMK AO2 PK WND 33027/1352 RAB41 SLP136 P0000 T02500161 TSNO $
CDB PACD Cold Bay, US Cold Bay Airport 20 27 4 12/12 29.80 PACD 011353Z AUTO 15020G27KT 4SM -RA BR SCT007 BKN016 OVC025 12/12 A2980 RMK AO2 PK WND 15031/1314 SLP091 P0001 T01220122 TSNO $
PTU PAPM Platinum, US Platinum Airport 18 23 9 15/14 29.88 PAPM 011352Z AUTO 16018G23KT 9SM -RA SCT012 OVC021 15/14 A2988 RMK AO2 P0002
MHG EDFM Mannheim, DE Mannheim-City Airport 7 22 5.59 18/16 29.82 EDFM 011350Z 20007G22KT 100V270 9000 -SHRA FEW038TCU SCT040 BKN047 18/16 Q1010
KFP PAKF False Pass, US False Pass Airport 14 21 3 12/11 29.81 PAKF 011256Z AUTO 19014G21KT 3SM -RA BR BKN007 OVC013 12/11 A2981 RMK AO2 CIG 005V012 SLP096 T01220111 PNO $
NAT SBSG Natal, BR Governador Aluízio Alves International Airport 10 20 4.97 27/22 30.09 SBSG 011300Z 19010G20KT 150V230 8000 -RA BKN021 FEW025TCU 27/22 Q1019
BGY LIME Bergamo, IT Il Caravaggio International Airport 9 19 2.49 17/16 29.68 LIME 011350Z 09009G19KT 010V130 4000 TSRA SCT015CB BKN040 17/16 Q1005 NOSIG
TAD KTAD Trinidad, US Perry Stokes Airport 10 17 1.75 16/14 30.43 KTAD 011346Z AUTO 01010G17KT 1 3/4SM RA BR OVC009 16/14 A3043 RMK AO2 RAE18B28 CIG 005V011 P0007 T01610144
EBLB Bütgenbach, BE Elsenborn Air Base 6 16 3.11 14/12 29.85 EBLB 011341Z AUTO 28006G16KT 5000 +RA FEW026/// BKN031/// BKN081/// 14/12 Q1011 WHT
ENSL NO Sleipner A Platform 31 13/10 29.76 ENSL 011350Z AUTO 34031KT 9999NDV -SHRA BKN020/// 13/10 Q1008 W14/S5
BHH OEBH SA Bisha Airport 29 2.61 23/21 29.79 OEBH 011300Z 03029KT 4200 RA SCT030 SCT100 23/21 Q1009 NOSIG
VIE LOWW Vienna, AT Vienna International Airport 18 6.21 19/16 29.73 LOWW 011350Z 28018KT 9999 SHRA VCTS FEW022 FEW030CB SCT045 19/16 Q1007 TEMPO -SHRA TS
UAK BGBW Narsarsuaq, GL Narsarsuaq Airport 17 15/7 29.56 BGBW 011350Z AUTO 07017KT 9999NDV SHRA FEW050/// OVC080/// 15/07 Q1001
LUG LSZA Lugano, CH Lugano Airport 14 6.21 23/14 29.70 LSZA 011350Z 36014KT 9999 -RA VCTS FEW050CB SCT080 23/14 Q1006
KVC PAVC King Cove, US King Cove Airport 14 5 12/12 29.90 PAVC 011315Z AUTO 05014KT 5SM -RA BR OVC009 12/12 A2990 RMK AO2 CIG 007V014 PNO $
CHR LFLX Châteauroux/Déols, FR Châteauroux-Déols "Marcel Dassault" Airport 13 6.21 17/11 29.97 LFLX 011330Z AUTO 27013KT 9999 RA SCT027/// BKN034/// BKN078/// ///CB 17/11 Q1015 TEMPO 2500 SHRA
NRN EDLV Weeze, DE Weeze Airport 13 6.21 17/14 29.82 EDLV 011350Z 27013KT 230V290 9999 SHRA BKN019 17/14 Q1010
OOK PAOO Toksook Bay, US Toksook Bay Airport 13 7 11/11 29.75 PAOO 011256Z AUTO 14013KT 7SM -RA OVC004 12/12 A2975 RMK AO2 SLP079 T01170117 TSNO PNO $
CKY GUCY Conakry, GN Conakry International Airport 12 3.11 25/24 30.00 GUCY 011300Z 23012KT 5000 -RA BKN013 OVC100 25/24 Q1016 NOSIG
UAM PGUA Yigo, Mariana Island, GU Andersen Air Force Base 12 5 25/23 29.80 PGUA 011341Z 26012KT 5SM -RA FEW095 BKN130 25/23 A2980 RMK AO2A RAB38 SLP082 $
YMN CYFT Makkovik, CA Makkovik Airport 12 15 10/9 29.46 CYFT 011332Z 24012KT 15SM -RA SCT012 OVC028 10/09 A2946 RMK ST4SC4 SLP980 DENSITY ALT 300FT
BBI VEBS Bhubaneswar, IN Biju Patnaik Airport 11 2.8 26/26 29.56 VEBS 011340Z 27011KT 4500 TSRA SCT012 SCT016 FEW030CB OCV080 26/26 Q1001 TEMPO 0800 +TSRA
LOXZ Zeltweg, AT Hinterstoisser Air Base 11 4.35 16/15 29.76 LOXZ 011350Z 30011KT 7000 SHRA FEW004ST SCT025SC BKN050SC 16/15 Q1008 NOSIG
LNZ LOWL Linz, AT Linz Hörsching Airport 11 6.21 16/14 29.82 LOWL 011350Z 26011KT 9999 -SHRA FEW020 BKN024 16/14 Q1010 TEMPO SHRA
NTU KNTU Virginia Beach, US Oceana Naval Air Station 11 9 26/22 29.87 KNTU 011256Z 11011KT 9SM -RA FEW035 BKN120 OVC150 26/23 A2987 RMK AO2 RAB49 SLP116 SVR T2 SET P0000 T02610228
HPB PAHP Hooper Bay, US Hooper Bay Airport 11 9 11/11 29.71 PAHP 011331Z AUTO 11011KT 9SM -RA OVC003 11/11 A2971 RMK AO2 PNO $
RQO KRQO El Reno, US El Reno Regional Airport 11 10 21/21 30.16 KRQO 011335Z AUTO 05011KT 10SM VCTSRA BKN006 OVC010 22/21 A3016 RMK AO2 LTG DSNT E THRU SW P0011 T02180213
OKC KOKC Oklahoma City, US Will Rogers World Airport 11 4 21/20 30.14 KOKC 011352Z 02011KT 4SM +RA BR SCT013 SCT042CB BKN110 22/21 A3014 RMK AO2 LTG DSNT E-SW TSE51 SLP190 OCNL LTGIC OHD-ALQDS TS OHD-ALQDS MOV E P0035 T02170206 $
BZG EPBY Bydgoszcz, PL Bydgoszcz Ignacy Jan Paderewski Airport 11 6.21 17/15 29.76 EPBY 011330Z 28011KT 9999 -RA NSC 17/15 Q1008
OUN KOUN Norman, US University of Oklahoma Westheimer Airport 11 3 22/21 30.11 KOUN 011345Z COR 02011KT 3SM -RA BKN009 BKN047 OVC060 22/21 A3011
TIK KTIK Oklahoma City, US Tinker Air Force Base 10 2.75 21/21 30.12 KTIK 011343Z 02010KT 2 3/4SM TSRA BR OVC020 21/21 A3012 RMK VIS 1 5/8V2 3/4 VIS 2 1/4 RWY18 RAE1255DZB1257E00RAB00 CIG 002 RWY13 SLP194 $
SFS RPLB Olongapo City, PH Subic Bay International Airport 10 3.73 25/25 29.73 RPLB 011300Z 25010KT 6000 +TSRA FEW016CB BKN017 OVC070 25/25 Q1007 RMK A2974 CB OHD
DKK KDKK Dunkirk, US Chautauqua County-Dunkirk Airport 10 10 19/16 29.83 KDKK 011353Z AUTO 35010KT 10SM -RA BKN016 BKN028 OVC041 19/17 A2983 RMK AO2 LTG DSNT E AND SW TSE19 SLP099 P0056 T01940167 $
LXV KLXV Leadville, US Lake County Airport 10 10 8/8 30.65 KLXV 011353Z AUTO 19010KT 10SM -RA FEW002 OVC008 09/08 A3065 RMK AO2 RAB07 SLP240 P0001 T00890083
ICN RKSI Seoul, KR Incheon International Airport 10 2.49 25/23 29.56 RKSI 011330Z 19010KT 160V220 4000 -RA BR FEW007 BKN030 OVC070 25/23 Q1001 NOSIG
OPO LPPR Porto, PT Francisco de Sá Carneiro Airport 10 3.73 18/14 30.06 LPPR 011330Z 21010KT 6000 -RADZ SCT020 OVC030 18/14 Q1018
GUY KGUY Guymon, US Guymon Municipal Airport 10 6 18/16 30.28 KGUY 011353Z AUTO 06010KT 6SM -RA BR BKN011 BKN019 OVC024 18/17 A3028 RMK AO2 RAB53 SLP212 P0000 T01830167
SKK PFSH Shaktoolik, US Shaktoolik Airport 10 10 11/ 29.86 PFSH 011256Z AUTO 17010KT 10SM -RA OVC049 12/ A2986 RMK AO2 SLP111 P0000 T0117
LHSN Szolnok, HU Szolnok Air Base 10 6.21 22/22 29.68 LHSN 011345Z 27010KT 230V320 9999 -TSRA FEW040CB SCT083 22/22 Q1005 BECMG NSW RMK BLU
JAI VIJP Jaipur, IN Jaipur International Airport 10 1.24 27/25 29.53 VIJP 011330Z 28010KT 2000 RA BKN025 FEW035CB BKN090 27/25 Q1000 TEMPO 1500 TSRA
LOAN Wiener Neustadt, AT Wiener Neustadt East Airport 10 4.97 / LOAN 011300Z 33010KT 8000 TSRA SCT020CU BKN030SC FEW030CB
ORF KORF Norfolk, US Norfolk International Airport 9 2.5 23/23 29.86 KORF 011351Z 08009KT 2 1/2SM +RA BR FEW012 BKN046 OVC080 23/23 A2986 RMK AO2 SLP111 P0018 T02330233
MST EHBK Maastricht, NL Maastricht Aachen Airport 9 6.21 15/13 29.85 EHBK 011325Z AUTO 27009KT 200V360 9999 -SHRA FEW011 FEW015CB SCT024 15/13 Q1011 RERA TEMPO 4000 TSRA SCT015CB
PSX KPSX Palacios, US Palacios Municipal Airport 9 7 30/25 30.04 KPSX 011353Z AUTO 23009KT 7SM -RA SCT021 BKN090 30/26 A3004 RMK AO2 SLP173 P0000 T03000256
CAO KCAO Clayton, US Clayton Municipal Airpark 9 2.5 17/16 30.36 KCAO 011351Z AUTO 02009KT 2 1/2SM -RA BR BKN010 OVC014 17/16 A3036 RMK AO2 RAB44 CIG 006V013 P0000